Airfield :
LOGIN :

Register | Disclaimer

   EN    FR    IT 

 










Legend :    VFR   Marginal VFR   IFR   Intensive IFR   Very Intensive IFR
Visi :
Ceiling :
>= 8 km
>= 3000ft
5 to 8 km
1000 to 3000 ft
1500m to 5 km
500 to 1000 ft
800 to 1500m
200 to 500 ft
< 800m
< 200 ft
Symbols :   Thunderstorms  Fog  Heavy snow  Heavy precipitations  Wind > 20 kt
SIGMETs :     Misc.  Thunderstorms  Icing  Turbulence  Mountain Waves  Volcanic Ashes






- Airport Elevation : 66 ft
- IATA code : AOK


LGKP - Karpathos

CURRENT METAR :
  • 202230Z AUTO 30009KT //// // ////// 18/16 Q1015 RE//

EXPIRED METARs :
  • 202200Z AUTO 29008KT //// // ////// 19/16 Q1015 RE//
  • 202130Z AUTO 30006KT //// // ////// 18/15 Q1015 RE//
  • 202100Z AUTO VRB03KT //// // ////// 18/15 Q1015 RE//
  • 202030Z AUTO VRB01KT //// // ////// 18/16 Q1016 RE//
  • 202000Z AUTO VRB02KT //// // ////// 18/15 Q1016 RE//

TAF TAF LGKP
Valid from the 20 at 21:00 until the 21 at 06:00 UTC


202000Z 2021/2106 04012KT 9999 SCT020 SCT050
PROB30
TEMPO 2021/2106 5000 TSRA FEW018CB SCT020 BKN050



MET'MAP, your aeronautical weather chart ! - Copyright ORBIFLY December 2007 - Disclaimer

ORBIFLY MET'MAP TEAM :

Programming & Development : Alexandra Zaïnal
Original concept : Baudouin d'Aumeries
Technical & hardware support : Manuel Goepfert
Assistance : Marc-Olivier Méhu

Contact : metmap@orbifly.com




SOURCES & CREDITS :

   NOAA